sensor_id;sensor_type;location;lat;lon;timestamp;P1;durP1;ratioP1;P2;durP2;ratioP2
19179;SDS011;9722;48.754;8.868;2023-08-30T00:02:39;3.10;;;2.33;;
19179;SDS011;9722;48.754;8.868;2023-08-30T00:06:03;2.40;;;2.30;;
19179;SDS011;9722;48.754;8.868;2023-08-30T00:09:24;2.43;;;2.20;;
19179;SDS011;9722;48.754;8.868;2023-08-30T00:12:45;3.07;;;2.90;;
19179;SDS011;9722;48.754;8.868;2023-08-30T00:16:05;2.73;;;2.63;;
19179;SDS011;9722;48.754;8.868;2023-08-30T00:19:26;2.40;;;2.30;;
19179;SDS011;9722;48.754;8.868;2023-08-30T00:22:47;2.27;;;2.10;;
19179;SDS011;9722;48.754;8.868;2023-08-30T00:26:10;2.20;;;2.00;;
19179;SDS011;9722;48.754;8.868;2023-08-30T00:29:31;2.80;;;2.60;;
19179;SDS011;9722;48.754;8.868;2023-08-30T00:32:51;2.27;;;2.17;;
19179;SDS011;9722;48.754;8.868;2023-08-30T00:36:12;2.40;;;2.20;;
19179;SDS011;9722;48.754;8.868;2023-08-30T00:39:32;2.77;;;2.57;;
19179;SDS011;9722;48.754;8.868;2023-08-30T00:42:53;2.57;;;2.37;;
19179;SDS011;9722;48.754;8.868;2023-08-30T00:46:13;2.80;;;2.60;;
19179;SDS011;9722;48.754;8.868;2023-08-30T00:49:35;2.27;;;2.17;;
19179;SDS011;9722;48.754;8.868;2023-08-30T00:52:56;3.40;;;2.60;;
19179;SDS011;9722;48.754;8.868;2023-08-30T00:56:16;2.73;;;2.53;;
19179;SDS011;9722;48.754;8.868;2023-08-30T00:59:38;2.80;;;2.60;;
19179;SDS011;9722;48.754;8.868;2023-08-30T01:02:59;3.00;;;2.30;;
19179;SDS011;9722;48.754;8.868;2023-08-30T01:06:20;2.90;;;2.70;;
19179;SDS011;9722;48.754;8.868;2023-08-30T01:09:40;2.60;;;2.40;;
19179;SDS011;9722;48.754;8.868;2023-08-30T01:13:04;2.77;;;2.57;;
19179;SDS011;9722;48.754;8.868;2023-08-30T01:16:28;2.03;;;1.93;;
19179;SDS011;9722;48.754;8.868;2023-08-30T01:20:05;2.53;;;2.43;;
19179;SDS011;9722;48.754;8.868;2023-08-30T01:23:56;2.03;;;1.93;;
19179;SDS011;9722;48.754;8.868;2023-08-30T01:27:20;2.10;;;2.00;;
19179;SDS011;9722;48.754;8.868;2023-08-30T01:30:42;2.27;;;2.10;;
19179;SDS011;9722;48.754;8.868;2023-08-30T01:34:05;2.60;;;2.10;;
19179;SDS011;9722;48.754;8.868;2023-08-30T01:37:26;2.17;;;2.00;;
19179;SDS011;9722;48.754;8.868;2023-08-30T01:40:47;1.57;;;1.50;;
19179;SDS011;9722;48.754;8.868;2023-08-30T01:44:08;2.10;;;2.00;;
19179;SDS011;9722;48.754;8.868;2023-08-30T01:47:30;2.33;;;2.13;;
19179;SDS011;9722;48.754;8.868;2023-08-30T01:50:53;2.10;;;1.97;;
19179;SDS011;9722;48.754;8.868;2023-08-30T01:54:18;2.03;;;1.93;;
19179;SDS011;9722;48.754;8.868;2023-08-30T01:57:40;2.60;;;2.03;;
19179;SDS011;9722;48.754;8.868;2023-08-30T02:01:01;2.57;;;2.47;;
19179;SDS011;9722;48.754;8.868;2023-08-30T02:04:21;2.27;;;2.17;;
19179;SDS011;9722;48.754;8.868;2023-08-30T02:11:17;2.23;;;2.13;;
19179;SDS011;9722;48.754;8.868;2023-08-30T02:14:45;2.30;;;2.10;;
19179;SDS011;9722;48.754;8.868;2023-08-30T02:18:08;2.70;;;2.50;;
19179;SDS011;9722;48.754;8.868;2023-08-30T02:21:30;2.03;;;1.93;;
19179;SDS011;9722;48.754;8.868;2023-08-30T02:24:50;1.80;;;1.70;;
19179;SDS011;9722;48.754;8.868;2023-08-30T02:28:11;2.30;;;2.20;;
19179;SDS011;9722;48.754;8.868;2023-08-30T02:31:31;2.20;;;2.00;;
19179;SDS011;9722;48.754;8.868;2023-08-30T02:34:52;2.33;;;2.13;;
19179;SDS011;9722;48.754;8.868;2023-08-30T02:38:13;2.27;;;2.17;;
19179;SDS011;9722;48.754;8.868;2023-08-30T02:41:33;1.73;;;1.73;;
19179;SDS011;9722;48.754;8.868;2023-08-30T02:44:54;2.30;;;2.20;;
19179;SDS011;9722;48.754;8.868;2023-08-30T02:48:14;2.20;;;2.10;;
19179;SDS011;9722;48.754;8.868;2023-08-30T02:51:35;2.27;;;2.17;;
19179;SDS011;9722;48.754;8.868;2023-08-30T02:54:55;2.23;;;2.13;;
19179;SDS011;9722;48.754;8.868;2023-08-30T02:58:16;2.57;;;2.47;;
19179;SDS011;9722;48.754;8.868;2023-08-30T03:01:37;3.40;;;3.10;;
19179;SDS011;9722;48.754;8.868;2023-08-30T03:04:58;2.57;;;2.47;;
19179;SDS011;9722;48.754;8.868;2023-08-30T03:08:19;3.40;;;3.00;;
19179;SDS011;9722;48.754;8.868;2023-08-30T03:11:39;3.03;;;2.83;;
19179;SDS011;9722;48.754;8.868;2023-08-30T03:15:00;3.53;;;3.20;;
19179;SDS011;9722;48.754;8.868;2023-08-30T03:18:21;3.53;;;3.33;;
19179;SDS011;9722;48.754;8.868;2023-08-30T03:21:41;3.07;;;2.87;;
19179;SDS011;9722;48.754;8.868;2023-08-30T03:25:01;4.57;;;4.07;;
19179;SDS011;9722;48.754;8.868;2023-08-30T03:28:23;3.40;;;3.20;;
19179;SDS011;9722;48.754;8.868;2023-08-30T03:31:44;4.37;;;3.77;;
19179;SDS011;9722;48.754;8.868;2023-08-30T03:35:04;3.63;;;3.43;;
19179;SDS011;9722;48.754;8.868;2023-08-30T03:38:25;4.27;;;3.90;;
19179;SDS011;9722;48.754;8.868;2023-08-30T03:41:45;3.53;;;3.33;;
19179;SDS011;9722;48.754;8.868;2023-08-30T03:45:07;2.13;;;2.03;;
19179;SDS011;9722;48.754;8.868;2023-08-30T03:48:28;2.53;;;2.43;;
19179;SDS011;9722;48.754;8.868;2023-08-30T03:51:49;2.10;;;1.90;;
19179;SDS011;9722;48.754;8.868;2023-08-30T03:55:10;2.50;;;2.30;;
19179;SDS011;9722;48.754;8.868;2023-08-30T03:58:31;3.00;;;2.60;;
19179;SDS011;9722;48.754;8.868;2023-08-30T04:01:51;3.67;;;2.70;;
19179;SDS011;9722;48.754;8.868;2023-08-30T04:05:12;3.30;;;3.10;;
19179;SDS011;9722;48.754;8.868;2023-08-30T04:08:33;3.67;;;3.47;;
19179;SDS011;9722;48.754;8.868;2023-08-30T04:11:54;4.73;;;3.33;;
19179;SDS011;9722;48.754;8.868;2023-08-30T04:15:14;3.60;;;3.30;;
19179;SDS011;9722;48.754;8.868;2023-08-30T04:18:35;3.60;;;3.40;;
19179;SDS011;9722;48.754;8.868;2023-08-30T04:21:56;3.60;;;3.40;;
19179;SDS011;9722;48.754;8.868;2023-08-30T04:25:16;4.10;;;3.80;;
19179;SDS011;9722;48.754;8.868;2023-08-30T04:28:37;5.77;;;2.60;;
19179;SDS011;9722;48.754;8.868;2023-08-30T04:31:57;7.80;;;3.90;;
19179;SDS011;9722;48.754;8.868;2023-08-30T04:35:18;2.83;;;2.63;;
19179;SDS011;9722;48.754;8.868;2023-08-30T04:38:38;3.40;;;3.20;;
19179;SDS011;9722;48.754;8.868;2023-08-30T04:41:59;2.80;;;2.60;;
19179;SDS011;9722;48.754;8.868;2023-08-30T04:45:20;2.93;;;2.73;;
19179;SDS011;9722;48.754;8.868;2023-08-30T04:48:41;3.63;;;3.43;;
19179;SDS011;9722;48.754;8.868;2023-08-30T04:52:01;2.63;;;2.33;;
19179;SDS011;9722;48.754;8.868;2023-08-30T04:55:25;3.20;;;3.00;;
19179;SDS011;9722;48.754;8.868;2023-08-30T04:58:48;2.83;;;2.63;;
19179;SDS011;9722;48.754;8.868;2023-08-30T05:02:10;3.03;;;2.83;;
19179;SDS011;9722;48.754;8.868;2023-08-30T05:05:30;2.10;;;1.90;;
19179;SDS011;9722;48.754;8.868;2023-08-30T05:08:51;2.47;;;2.10;;
19179;SDS011;9722;48.754;8.868;2023-08-30T05:12:11;2.30;;;1.70;;
19179;SDS011;9722;48.754;8.868;2023-08-30T05:15:32;2.50;;;2.30;;
19179;SDS011;9722;48.754;8.868;2023-08-30T05:18:52;2.57;;;1.60;;
19179;SDS011;9722;48.754;8.868;2023-08-30T05:22:13;2.97;;;2.10;;
19179;SDS011;9722;48.754;8.868;2023-08-30T05:25:33;2.33;;;1.80;;
19179;SDS011;9722;48.754;8.868;2023-08-30T05:28:54;2.63;;;2.43;;
19179;SDS011;9722;48.754;8.868;2023-08-30T05:32:14;2.00;;;1.87;;
19179;SDS011;9722;48.754;8.868;2023-08-30T05:35:35;3.60;;;1.60;;
19179;SDS011;9722;48.754;8.868;2023-08-30T05:38:55;2.00;;;1.90;;
19179;SDS011;9722;48.754;8.868;2023-08-30T05:42:16;1.43;;;1.33;;
19179;SDS011;9722;48.754;8.868;2023-08-30T05:45:36;2.07;;;1.97;;
19179;SDS011;9722;48.754;8.868;2023-08-30T05:48:57;1.50;;;1.40;;
19179;SDS011;9722;48.754;8.868;2023-08-30T05:52:17;2.80;;;2.70;;
19179;SDS011;9722;48.754;8.868;2023-08-30T05:55:38;2.03;;;1.40;;
19179;SDS011;9722;48.754;8.868;2023-08-30T05:58:58;2.23;;;1.60;;
19179;SDS011;9722;48.754;8.868;2023-08-30T06:02:19;2.40;;;2.30;;
19179;SDS011;9722;48.754;8.868;2023-08-30T06:05:39;1.23;;;1.20;;
19179;SDS011;9722;48.754;8.868;2023-08-30T06:09:00;3.43;;;3.23;;
19179;SDS011;9722;48.754;8.868;2023-08-30T06:12:20;4.10;;;2.70;;
19179;SDS011;9722;48.754;8.868;2023-08-30T06:15:41;3.77;;;1.93;;
19179;SDS011;9722;48.754;8.868;2023-08-30T06:19:01;2.43;;;2.23;;
19179;SDS011;9722;48.754;8.868;2023-08-30T06:22:22;3.10;;;2.90;;
19179;SDS011;9722;48.754;8.868;2023-08-30T06:25:43;1.40;;;1.30;;
19179;SDS011;9722;48.754;8.868;2023-08-30T06:29:03;1.40;;;1.30;;
19179;SDS011;9722;48.754;8.868;2023-08-30T06:32:24;1.43;;;1.33;;
19179;SDS011;9722;48.754;8.868;2023-08-30T06:35:47;2.37;;;2.27;;
19179;SDS011;9722;48.754;8.868;2023-08-30T06:39:08;1.40;;;1.30;;
19179;SDS011;9722;48.754;8.868;2023-08-30T06:42:29;2.13;;;2.03;;
19179;SDS011;9722;48.754;8.868;2023-08-30T06:45:49;1.50;;;1.30;;
19179;SDS011;9722;48.754;8.868;2023-08-30T06:49:10;2.73;;;2.63;;
19179;SDS011;9722;48.754;8.868;2023-08-30T06:52:31;2.70;;;2.17;;
19179;SDS011;9722;48.754;8.868;2023-08-30T06:55:58;1.20;;;1.20;;
19179;SDS011;9722;48.754;8.868;2023-08-30T06:59:22;1.60;;;1.50;;
19179;SDS011;9722;48.754;8.868;2023-08-30T07:02:42;1.93;;;1.83;;
19179;SDS011;9722;48.754;8.868;2023-08-30T07:06:06;2.10;;;2.00;;
19179;SDS011;9722;48.754;8.868;2023-08-30T07:09:27;2.43;;;2.33;;
19179;SDS011;9722;48.754;8.868;2023-08-30T07:12:51;2.00;;;1.80;;
19179;SDS011;9722;48.754;8.868;2023-08-30T07:16:12;1.90;;;1.80;;
19179;SDS011;9722;48.754;8.868;2023-08-30T07:19:32;2.33;;;2.13;;
19179;SDS011;9722;48.754;8.868;2023-08-30T07:22:53;2.63;;;2.53;;
19179;SDS011;9722;48.754;8.868;2023-08-30T07:26:13;2.00;;;1.77;;
19179;SDS011;9722;48.754;8.868;2023-08-30T07:29:34;1.80;;;1.70;;
19179;SDS011;9722;48.754;8.868;2023-08-30T07:32:54;2.00;;;1.90;;
19179;SDS011;9722;48.754;8.868;2023-08-30T07:36:15;1.37;;;1.27;;
19179;SDS011;9722;48.754;8.868;2023-08-30T07:39:36;1.53;;;1.43;;
19179;SDS011;9722;48.754;8.868;2023-08-30T07:42:56;2.40;;;2.13;;
19179;SDS011;9722;48.754;8.868;2023-08-30T07:46:17;2.00;;;1.77;;
19179;SDS011;9722;48.754;8.868;2023-08-30T07:49:37;1.50;;;1.40;;
19179;SDS011;9722;48.754;8.868;2023-08-30T07:52:58;2.37;;;2.17;;
19179;SDS011;9722;48.754;8.868;2023-08-30T07:56:18;2.30;;;2.20;;
19179;SDS011;9722;48.754;8.868;2023-08-30T07:59:39;1.93;;;1.30;;
19179;SDS011;9722;48.754;8.868;2023-08-30T08:02:59;1.30;;;1.10;;
19179;SDS011;9722;48.754;8.868;2023-08-30T08:06:20;1.60;;;1.50;;
19179;SDS011;9722;48.754;8.868;2023-08-30T08:09:40;1.73;;;1.63;;
19179;SDS011;9722;48.754;8.868;2023-08-30T08:13:01;1.73;;;1.63;;
19179;SDS011;9722;48.754;8.868;2023-08-30T08:16:23;2.87;;;2.30;;
19179;SDS011;9722;48.754;8.868;2023-08-30T08:19:44;1.77;;;1.50;;
19179;SDS011;9722;48.754;8.868;2023-08-30T08:23:05;2.00;;;1.90;;
19179;SDS011;9722;48.754;8.868;2023-08-30T08:26:25;1.80;;;1.70;;
19179;SDS011;9722;48.754;8.868;2023-08-30T08:29:46;1.77;;;1.67;;
19179;SDS011;9722;48.754;8.868;2023-08-30T08:33:06;1.23;;;1.17;;
19179;SDS011;9722;48.754;8.868;2023-08-30T08:36:27;2.53;;;2.33;;
19179;SDS011;9722;48.754;8.868;2023-08-30T08:39:47;2.07;;;1.83;;
19179;SDS011;9722;48.754;8.868;2023-08-30T08:43:10;1.00;;;1.00;;
19179;SDS011;9722;48.754;8.868;2023-08-30T08:46:51;2.27;;;2.07;;
19179;SDS011;9722;48.754;8.868;2023-08-30T08:50:12;1.27;;;1.17;;
19179;SDS011;9722;48.754;8.868;2023-08-30T08:53:33;2.53;;;2.33;;
19179;SDS011;9722;48.754;8.868;2023-08-30T08:56:54;2.00;;;1.90;;
19179;SDS011;9722;48.754;8.868;2023-08-30T09:00:16;0.90;;;0.90;;
19179;SDS011;9722;48.754;8.868;2023-08-30T09:03:36;1.90;;;1.63;;
19179;SDS011;9722;48.754;8.868;2023-08-30T09:06:58;0.73;;;0.73;;
19179;SDS011;9722;48.754;8.868;2023-08-30T09:10:20;0.90;;;0.80;;
19179;SDS011;9722;48.754;8.868;2023-08-30T09:13:44;0.70;;;0.70;;
19179;SDS011;9722;48.754;8.868;2023-08-30T09:17:04;1.23;;;1.03;;
19179;SDS011;9722;48.754;8.868;2023-08-30T09:20:25;2.03;;;1.20;;
19179;SDS011;9722;48.754;8.868;2023-08-30T09:23:46;1.73;;;1.63;;
19179;SDS011;9722;48.754;8.868;2023-08-30T09:27:30;1.97;;;1.80;;
19179;SDS011;9722;48.754;8.868;2023-08-30T09:30:53;1.73;;;1.63;;
19179;SDS011;9722;48.754;8.868;2023-08-30T09:34:14;1.17;;;0.70;;
19179;SDS011;9722;48.754;8.868;2023-08-30T09:37:34;1.20;;;0.90;;
19179;SDS011;9722;48.754;8.868;2023-08-30T09:41:13;0.90;;;0.90;;
19179;SDS011;9722;48.754;8.868;2023-08-30T09:44:34;1.60;;;1.40;;
19179;SDS011;9722;48.754;8.868;2023-08-30T09:47:54;1.10;;;1.10;;
19179;SDS011;9722;48.754;8.868;2023-08-30T09:51:15;0.90;;;0.90;;
19179;SDS011;9722;48.754;8.868;2023-08-30T09:54:39;1.47;;;1.37;;
19179;SDS011;9722;48.754;8.868;2023-08-30T09:58:01;0.80;;;0.80;;
19179;SDS011;9722;48.754;8.868;2023-08-30T10:01:25;1.30;;;1.20;;
19179;SDS011;9722;48.754;8.868;2023-08-30T10:04:47;1.23;;;1.13;;
19179;SDS011;9722;48.754;8.868;2023-08-30T10:08:10;1.50;;;1.40;;
19179;SDS011;9722;48.754;8.868;2023-08-30T10:11:33;1.97;;;1.40;;
19179;SDS011;9722;48.754;8.868;2023-08-30T10:14:55;0.70;;;0.67;;
19179;SDS011;9722;48.754;8.868;2023-08-30T10:18:18;1.20;;;1.20;;
19179;SDS011;9722;48.754;8.868;2023-08-30T10:21:44;1.43;;;1.33;;
19179;SDS011;9722;48.754;8.868;2023-08-30T10:25:11;1.83;;;1.20;;
19179;SDS011;9722;48.754;8.868;2023-08-30T10:28:36;1.70;;;1.60;;
19179;SDS011;9722;48.754;8.868;2023-08-30T10:32:05;1.20;;;1.10;;
19179;SDS011;9722;48.754;8.868;2023-08-30T10:35:26;1.40;;;1.30;;
19179;SDS011;9722;48.754;8.868;2023-08-30T10:38:53;1.00;;;0.80;;
19179;SDS011;9722;48.754;8.868;2023-08-30T10:42:15;0.70;;;0.70;;
19179;SDS011;9722;48.754;8.868;2023-08-30T10:45:36;1.03;;;1.00;;
19179;SDS011;9722;48.754;8.868;2023-08-30T10:49:07;0.87;;;0.80;;
19179;SDS011;9722;48.754;8.868;2023-08-30T10:52:35;0.80;;;0.80;;
19179;SDS011;9722;48.754;8.868;2023-08-30T10:56:02;0.97;;;0.97;;
19179;SDS011;9722;48.754;8.868;2023-08-30T10:59:23;1.37;;;1.10;;
19179;SDS011;9722;48.754;8.868;2023-08-30T11:02:45;1.10;;;1.10;;
19179;SDS011;9722;48.754;8.868;2023-08-30T11:06:06;1.60;;;1.40;;
19179;SDS011;9722;48.754;8.868;2023-08-30T11:09:27;1.53;;;1.30;;
19179;SDS011;9722;48.754;8.868;2023-08-30T11:12:48;0.80;;;0.80;;
19179;SDS011;9722;48.754;8.868;2023-08-30T11:16:09;1.33;;;1.33;;
19179;SDS011;9722;48.754;8.868;2023-08-30T11:19:31;2.30;;;2.10;;
19179;SDS011;9722;48.754;8.868;2023-08-30T11:22:52;2.00;;;1.90;;
19179;SDS011;9722;48.754;8.868;2023-08-30T11:26:15;2.13;;;1.97;;
19179;SDS011;9722;48.754;8.868;2023-08-30T11:29:36;2.40;;;2.20;;
19179;SDS011;9722;48.754;8.868;2023-08-30T11:33:00;4.03;;;2.57;;
19179;SDS011;9722;48.754;8.868;2023-08-30T11:36:23;2.60;;;2.30;;
19179;SDS011;9722;48.754;8.868;2023-08-30T11:39:45;3.87;;;2.90;;
19179;SDS011;9722;48.754;8.868;2023-08-30T11:43:06;3.00;;;2.80;;
19179;SDS011;9722;48.754;8.868;2023-08-30T11:46:27;2.67;;;2.40;;
19179;SDS011;9722;48.754;8.868;2023-08-30T11:49:57;2.33;;;2.13;;
19179;SDS011;9722;48.754;8.868;2023-08-30T11:53:19;2.87;;;2.53;;
19179;SDS011;9722;48.754;8.868;2023-08-30T11:56:39;2.57;;;2.47;;
19179;SDS011;9722;48.754;8.868;2023-08-30T12:00:07;2.53;;;2.40;;
19179;SDS011;9722;48.754;8.868;2023-08-30T12:03:31;2.23;;;2.10;;
19179;SDS011;9722;48.754;8.868;2023-08-30T12:06:52;3.03;;;2.73;;
19179;SDS011;9722;48.754;8.868;2023-08-30T12:10:17;4.50;;;2.20;;
19179;SDS011;9722;48.754;8.868;2023-08-30T12:13:39;2.10;;;1.90;;
19179;SDS011;9722;48.754;8.868;2023-08-30T12:17:00;2.27;;;1.73;;
19179;SDS011;9722;48.754;8.868;2023-08-30T12:20:20;1.70;;;1.60;;
19179;SDS011;9722;48.754;8.868;2023-08-30T12:23:43;1.80;;;1.70;;
19179;SDS011;9722;48.754;8.868;2023-08-30T12:27:03;1.60;;;1.50;;
19179;SDS011;9722;48.754;8.868;2023-08-30T12:30:24;1.73;;;1.50;;
19179;SDS011;9722;48.754;8.868;2023-08-30T12:33:45;1.50;;;1.40;;
19179;SDS011;9722;48.754;8.868;2023-08-30T12:37:05;1.87;;;1.70;;
19179;SDS011;9722;48.754;8.868;2023-08-30T12:40:26;1.70;;;1.60;;
19179;SDS011;9722;48.754;8.868;2023-08-30T12:43:46;1.57;;;1.37;;
19179;SDS011;9722;48.754;8.868;2023-08-30T12:47:07;2.03;;;1.50;;
19179;SDS011;9722;48.754;8.868;2023-08-30T12:50:27;1.73;;;1.50;;
19179;SDS011;9722;48.754;8.868;2023-08-30T12:53:48;1.43;;;1.33;;
19179;SDS011;9722;48.754;8.868;2023-08-30T12:57:09;1.67;;;1.57;;
19179;SDS011;9722;48.754;8.868;2023-08-30T13:00:29;1.67;;;1.53;;
19179;SDS011;9722;48.754;8.868;2023-08-30T13:03:50;1.40;;;1.30;;
19179;SDS011;9722;48.754;8.868;2023-08-30T13:07:10;1.67;;;1.50;;
19179;SDS011;9722;48.754;8.868;2023-08-30T13:10:31;1.40;;;1.30;;
19179;SDS011;9722;48.754;8.868;2023-08-30T13:13:52;1.80;;;1.70;;
19179;SDS011;9722;48.754;8.868;2023-08-30T13:17:12;1.90;;;1.80;;
19179;SDS011;9722;48.754;8.868;2023-08-30T13:20:36;1.53;;;1.30;;
19179;SDS011;9722;48.754;8.868;2023-08-30T13:23:57;1.30;;;1.27;;
19179;SDS011;9722;48.754;8.868;2023-08-30T13:27:18;1.50;;;1.40;;
19179;SDS011;9722;48.754;8.868;2023-08-30T13:30:46;1.13;;;1.13;;
19179;SDS011;9722;48.754;8.868;2023-08-30T13:34:07;2.07;;;1.93;;
19179;SDS011;9722;48.754;8.868;2023-08-30T13:37:27;1.60;;;1.33;;
19179;SDS011;9722;48.754;8.868;2023-08-30T13:40:48;1.40;;;1.30;;
19179;SDS011;9722;48.754;8.868;2023-08-30T13:44:08;1.50;;;1.40;;
19179;SDS011;9722;48.754;8.868;2023-08-30T13:47:28;1.50;;;1.40;;
19179;SDS011;9722;48.754;8.868;2023-08-30T13:50:49;1.40;;;1.30;;
19179;SDS011;9722;48.754;8.868;2023-08-30T13:54:10;1.30;;;1.30;;
19179;SDS011;9722;48.754;8.868;2023-08-30T13:57:31;4.10;;;1.50;;
19179;SDS011;9722;48.754;8.868;2023-08-30T14:00:51;2.13;;;1.87;;
19179;SDS011;9722;48.754;8.868;2023-08-30T14:04:12;3.40;;;2.20;;
19179;SDS011;9722;48.754;8.868;2023-08-30T14:07:32;3.17;;;2.43;;
19179;SDS011;9722;48.754;8.868;2023-08-30T14:10:54;2.90;;;2.60;;
19179;SDS011;9722;48.754;8.868;2023-08-30T14:14:15;3.73;;;2.40;;
19179;SDS011;9722;48.754;8.868;2023-08-30T14:17:35;2.80;;;2.60;;
19179;SDS011;9722;48.754;8.868;2023-08-30T14:20:56;2.33;;;2.23;;
19179;SDS011;9722;48.754;8.868;2023-08-30T14:24:17;3.07;;;2.77;;
19179;SDS011;9722;48.754;8.868;2023-08-30T14:27:38;3.30;;;3.10;;
19179;SDS011;9722;48.754;8.868;2023-08-30T14:30:59;3.67;;;2.83;;
19179;SDS011;9722;48.754;8.868;2023-08-30T14:34:20;4.77;;;2.70;;
19179;SDS011;9722;48.754;8.868;2023-08-30T14:37:40;2.80;;;2.60;;
19179;SDS011;9722;48.754;8.868;2023-08-30T14:41:01;3.03;;;2.83;;
19179;SDS011;9722;48.754;8.868;2023-08-30T14:44:21;3.07;;;2.87;;
19179;SDS011;9722;48.754;8.868;2023-08-30T14:47:45;2.50;;;2.30;;
19179;SDS011;9722;48.754;8.868;2023-08-30T14:51:06;2.67;;;2.13;;
19179;SDS011;9722;48.754;8.868;2023-08-30T14:54:27;1.93;;;1.83;;
19179;SDS011;9722;48.754;8.868;2023-08-30T14:57:47;2.10;;;2.00;;
19179;SDS011;9722;48.754;8.868;2023-08-30T15:01:09;4.27;;;2.00;;
19179;SDS011;9722;48.754;8.868;2023-08-30T15:04:29;2.50;;;1.53;;
19179;SDS011;9722;48.754;8.868;2023-08-30T15:07:50;2.13;;;1.80;;
19179;SDS011;9722;48.754;8.868;2023-08-30T15:11:10;1.90;;;1.47;;
19179;SDS011;9722;48.754;8.868;2023-08-30T15:14:31;1.93;;;1.33;;
19179;SDS011;9722;48.754;8.868;2023-08-30T15:17:52;2.90;;;2.13;;
19179;SDS011;9722;48.754;8.868;2023-08-30T15:21:13;2.10;;;1.60;;
19179;SDS011;9722;48.754;8.868;2023-08-30T15:24:33;3.53;;;1.43;;
19179;SDS011;9722;48.754;8.868;2023-08-30T15:27:54;1.70;;;1.60;;
19179;SDS011;9722;48.754;8.868;2023-08-30T15:31:15;1.50;;;1.20;;
19179;SDS011;9722;48.754;8.868;2023-08-30T15:34:39;1.70;;;1.60;;
19179;SDS011;9722;48.754;8.868;2023-08-30T15:38:00;1.63;;;1.53;;
19179;SDS011;9722;48.754;8.868;2023-08-30T15:41:20;3.00;;;2.27;;
19179;SDS011;9722;48.754;8.868;2023-08-30T15:44:41;1.50;;;1.40;;
19179;SDS011;9722;48.754;8.868;2023-08-30T15:48:01;1.37;;;1.27;;
19179;SDS011;9722;48.754;8.868;2023-08-30T15:51:22;1.63;;;1.50;;
19179;SDS011;9722;48.754;8.868;2023-08-30T15:54:42;2.90;;;1.40;;
19179;SDS011;9722;48.754;8.868;2023-08-30T15:58:03;1.63;;;1.53;;
19179;SDS011;9722;48.754;8.868;2023-08-30T16:01:23;1.87;;;1.20;;
19179;SDS011;9722;48.754;8.868;2023-08-30T16:04:45;1.37;;;1.27;;
19179;SDS011;9722;48.754;8.868;2023-08-30T16:08:05;1.43;;;1.33;;
19179;SDS011;9722;48.754;8.868;2023-08-30T16:11:26;1.50;;;1.40;;
19179;SDS011;9722;48.754;8.868;2023-08-30T16:14:47;1.60;;;1.50;;
19179;SDS011;9722;48.754;8.868;2023-08-30T16:18:07;1.60;;;1.50;;
19179;SDS011;9722;48.754;8.868;2023-08-30T16:21:28;1.93;;;1.80;;
19179;SDS011;9722;48.754;8.868;2023-08-30T16:24:49;3.10;;;1.70;;
19179;SDS011;9722;48.754;8.868;2023-08-30T16:28:09;1.50;;;1.40;;
19179;SDS011;9722;48.754;8.868;2023-08-30T16:31:30;1.70;;;1.60;;
19179;SDS011;9722;48.754;8.868;2023-08-30T16:34:51;1.77;;;1.67;;
19179;SDS011;9722;48.754;8.868;2023-08-30T16:38:12;1.77;;;1.40;;
19179;SDS011;9722;48.754;8.868;2023-08-30T16:41:32;1.83;;;1.53;;
19179;SDS011;9722;48.754;8.868;2023-08-30T16:44:53;1.53;;;1.43;;
19179;SDS011;9722;48.754;8.868;2023-08-30T16:48:14;1.57;;;1.47;;
19179;SDS011;9722;48.754;8.868;2023-08-30T16:51:35;2.30;;;1.40;;
19179;SDS011;9722;48.754;8.868;2023-08-30T16:54:57;1.63;;;1.50;;
19179;SDS011;9722;48.754;8.868;2023-08-30T16:58:18;1.60;;;1.50;;
19179;SDS011;9722;48.754;8.868;2023-08-30T17:01:39;1.83;;;1.73;;
19179;SDS011;9722;48.754;8.868;2023-08-30T17:05:01;1.90;;;1.80;;
19179;SDS011;9722;48.754;8.868;2023-08-30T17:08:22;2.80;;;1.67;;
19179;SDS011;9722;48.754;8.868;2023-08-30T17:11:42;1.90;;;1.70;;
19179;SDS011;9722;48.754;8.868;2023-08-30T17:15:04;1.43;;;1.33;;
19179;SDS011;9722;48.754;8.868;2023-08-30T17:18:25;1.43;;;1.33;;
19179;SDS011;9722;48.754;8.868;2023-08-30T17:21:48;2.13;;;1.77;;
19179;SDS011;9722;48.754;8.868;2023-08-30T17:25:08;2.47;;;1.70;;
19179;SDS011;9722;48.754;8.868;2023-08-30T17:28:29;1.93;;;1.83;;
19179;SDS011;9722;48.754;8.868;2023-08-30T17:31:50;2.80;;;1.87;;
19179;SDS011;9722;48.754;8.868;2023-08-30T17:35:11;1.73;;;1.53;;
19179;SDS011;9722;48.754;8.868;2023-08-30T17:38:31;1.90;;;1.80;;
19179;SDS011;9722;48.754;8.868;2023-08-30T17:41:52;2.00;;;1.90;;
19179;SDS011;9722;48.754;8.868;2023-08-30T17:45:13;2.03;;;1.63;;
19179;SDS011;9722;48.754;8.868;2023-08-30T17:48:34;2.13;;;1.93;;
19179;SDS011;9722;48.754;8.868;2023-08-30T17:51:54;1.80;;;1.67;;
19179;SDS011;9722;48.754;8.868;2023-08-30T17:55:15;1.70;;;1.60;;
19179;SDS011;9722;48.754;8.868;2023-08-30T17:58:36;1.70;;;1.60;;
19179;SDS011;9722;48.754;8.868;2023-08-30T18:01:56;2.00;;;1.83;;
19179;SDS011;9722;48.754;8.868;2023-08-30T18:05:18;1.80;;;1.70;;
19179;SDS011;9722;48.754;8.868;2023-08-30T18:08:39;1.93;;;1.73;;
19179;SDS011;9722;48.754;8.868;2023-08-30T18:12:00;2.03;;;1.63;;
19179;SDS011;9722;48.754;8.868;2023-08-30T18:15:23;2.00;;;1.87;;
19179;SDS011;9722;48.754;8.868;2023-08-30T18:18:45;2.27;;;2.07;;
19179;SDS011;9722;48.754;8.868;2023-08-30T18:22:06;3.27;;;2.13;;
19179;SDS011;9722;48.754;8.868;2023-08-30T18:25:27;1.97;;;1.87;;
19179;SDS011;9722;48.754;8.868;2023-08-30T18:28:47;1.83;;;1.73;;
19179;SDS011;9722;48.754;8.868;2023-08-30T18:32:08;1.67;;;1.57;;
19179;SDS011;9722;48.754;8.868;2023-08-30T18:35:31;1.63;;;1.53;;
19179;SDS011;9722;48.754;8.868;2023-08-30T18:38:53;3.03;;;1.97;;
19179;SDS011;9722;48.754;8.868;2023-08-30T18:42:13;3.50;;;1.70;;
19179;SDS011;9722;48.754;8.868;2023-08-30T18:45:34;2.27;;;1.93;;
19179;SDS011;9722;48.754;8.868;2023-08-30T18:49:02;1.63;;;1.53;;
19179;SDS011;9722;48.754;8.868;2023-08-30T18:52:23;1.73;;;1.63;;
19179;SDS011;9722;48.754;8.868;2023-08-30T18:55:44;2.93;;;1.67;;
19179;SDS011;9722;48.754;8.868;2023-08-30T18:59:04;2.03;;;1.80;;
19179;SDS011;9722;48.754;8.868;2023-08-30T19:02:25;3.87;;;1.90;;
19179;SDS011;9722;48.754;8.868;2023-08-30T19:05:46;2.73;;;1.60;;
19179;SDS011;9722;48.754;8.868;2023-08-30T19:09:06;2.27;;;2.03;;
19179;SDS011;9722;48.754;8.868;2023-08-30T19:12:28;2.53;;;2.27;;
19179;SDS011;9722;48.754;8.868;2023-08-30T19:15:49;3.07;;;1.70;;
19179;SDS011;9722;48.754;8.868;2023-08-30T19:19:09;2.30;;;1.97;;
19179;SDS011;9722;48.754;8.868;2023-08-30T19:22:30;2.33;;;1.50;;
19179;SDS011;9722;48.754;8.868;2023-08-30T19:25:51;4.33;;;1.67;;
19179;SDS011;9722;48.754;8.868;2023-08-30T19:29:13;3.20;;;1.70;;
19179;SDS011;9722;48.754;8.868;2023-08-30T19:32:33;3.00;;;1.70;;
19179;SDS011;9722;48.754;8.868;2023-08-30T19:35:53;3.17;;;1.80;;
19179;SDS011;9722;48.754;8.868;2023-08-30T19:39:14;2.43;;;1.50;;
19179;SDS011;9722;48.754;8.868;2023-08-30T19:42:35;2.17;;;1.80;;
19179;SDS011;9722;48.754;8.868;2023-08-30T19:46:00;2.73;;;1.80;;
19179;SDS011;9722;48.754;8.868;2023-08-30T19:49:22;1.70;;;1.50;;
19179;SDS011;9722;48.754;8.868;2023-08-30T19:52:42;4.27;;;1.50;;
19179;SDS011;9722;48.754;8.868;2023-08-30T19:56:03;3.37;;;2.10;;
19179;SDS011;9722;48.754;8.868;2023-08-30T19:59:26;4.37;;;1.80;;
19179;SDS011;9722;48.754;8.868;2023-08-30T20:02:46;2.17;;;1.97;;
19179;SDS011;9722;48.754;8.868;2023-08-30T20:06:07;2.03;;;1.67;;
19179;SDS011;9722;48.754;8.868;2023-08-30T20:09:28;2.17;;;1.60;;
19179;SDS011;9722;48.754;8.868;2023-08-30T20:12:49;1.83;;;1.73;;
19179;SDS011;9722;48.754;8.868;2023-08-30T20:16:10;5.30;;;1.60;;
19179;SDS011;9722;48.754;8.868;2023-08-30T20:19:31;1.50;;;1.40;;
19179;SDS011;9722;48.754;8.868;2023-08-30T20:22:51;1.90;;;1.70;;
19179;SDS011;9722;48.754;8.868;2023-08-30T20:26:12;1.73;;;1.63;;
19179;SDS011;9722;48.754;8.868;2023-08-30T20:29:33;2.47;;;1.80;;
19179;SDS011;9722;48.754;8.868;2023-08-30T20:32:54;1.60;;;1.50;;
19179;SDS011;9722;48.754;8.868;2023-08-30T20:36:15;3.77;;;1.50;;